Time;durP1;ratioP1;P1;durP2;ratioP2;P2;SDS_P1;SDS_P2;PMS_P1;PMS_P2;Temp;Humidity;BMP_temperature;BMP_pressure;BME280_temperature;BME280_humidity;BME280_pressure;Samples;Min_cycle;Max_cycle;Signal;HPM_P1;HPM_P2
2021/10/06 05:02:34;;;;;;;43.83;22.67;;;;;;;10.16;85.62;95491.19;5002118;23;20102;-76
2021/10/06 05:04:59;;;;;;;22.63;20.17;;;;;;;10.32;85.16;95506.81;4933956;28;20039;-77
2021/10/06 05:07:25;;;;;;;22.60;20.08;;;;;;;10.44;85.40;95513.31;4951581;29;20031;-77
2021/10/06 05:09:50;;;;;;;91.55;25.25;;;;;;;10.39;85.15;95505.22;4952122;29;20034;-78
2021/10/06 05:12:16;;;;;;;56.75;22.70;;;;;;;10.32;85.57;95511.97;4950516;28;20468;-75
2021/10/06 05:14:41;;;;;;;23.17;20.25;;;;;;;10.45;85.35;95520.94;4952031;29;20489;-76
2021/10/06 05:17:07;;;;;;;21.60;19.45;;;;;;;10.40;85.30;95525.75;4950248;28;20035;-75
2021/10/06 05:19:32;;;;;;;299.40;39.33;;;;;;;10.25;85.54;95491.09;4951262;29;20031;-75
2021/10/06 05:21:58;;;;;;;22.30;20.20;;;;;;;10.58;85.08;95515.31;4950449;28;20031;-78
2021/10/06 05:24:23;;;;;;;693.38;53.85;;;;;;;10.43;85.20;95524.66;4951355;29;20039;-75
2021/10/06 05:26:48;;;;;;;150.52;25.50;;;;;;;10.41;84.77;95522.22;4951201;29;20035;-75
2021/10/06 05:29:14;;;;;;;71.75;23.00;;;;;;;10.53;84.33;95517.59;4950582;28;20446;-76
2021/10/06 05:31:41;;;;;;;136.15;26.83;;;;;;;10.53;84.03;95515.00;4950839;28;20038;-76
2021/10/06 05:34:06;;;;;;;119.97;25.75;;;;;;;10.58;83.96;95505.78;4950852;29;20401;-76
2021/10/06 05:36:32;;;;;;;134.23;25.30;;;;;;;10.54;83.95;95499.28;4935929;28;20027;-77
2021/10/06 05:38:57;;;;;;;519.78;41.55;;;;;;;10.63;83.29;95505.28;4951303;29;20027;-77
2021/10/06 05:41:22;;;;;;;23.10;20.88;;;;;;;10.61;83.25;95498.66;4951741;29;20023;-78
2021/10/06 05:43:48;;;;;;;231.60;28.30;;;;;;;10.72;82.74;95500.97;4950207;29;20035;-76
2021/10/06 05:46:13;;;;;;;44.42;21.77;;;;;;;10.72;82.62;95499.19;4951199;28;20038;-76
2021/10/06 05:48:39;;;;;;;50.97;21.75;;;;;;;10.83;82.39;95495.47;4950966;29;20039;-75
2021/10/06 05:51:04;;;;;;;268.90;32.97;;;;;;;10.84;82.13;95497.09;4950594;28;20664;-76
2021/10/06 05:53:30;;;;;;;27.23;21.90;;;;;;;10.88;82.07;95507.00;4950876;28;20090;-76
2021/10/06 05:55:55;;;;;;;163.98;28.15;;;;;;;10.71;82.15;95496.75;4952355;28;20342;-76
2021/10/06 05:58:23;;;;;;;303.10;33.50;;;;;;;10.82;81.79;95501.66;4954207;28;20023;-78
2021/10/06 06:00:48;;;;;;;122.88;57.05;;;;;;;10.98;81.36;95504.28;4950771;28;20098;-78
2021/10/06 06:03:14;;;;;;;876.70;494.15;;;;;;;11.09;81.70;95491.81;4934624;29;20027;-77
2021/10/06 06:05:40;;;;;;;286.13;133.95;;;;;;;11.13;81.40;95486.31;4949805;28;20028;-76
2021/10/06 06:08:06;;;;;;;333.40;159.85;;;;;;;11.11;80.82;95487.25;4951118;29;20027;-77
2021/10/06 06:10:31;;;;;;;463.70;146.15;;;;;;;11.25;81.04;95487.59;4950603;29;20033;-77
2021/10/06 06:12:56;;;;;;;890.47;496.70;;;;;;;11.11;81.64;95478.66;4932714;29;20035;-76
2021/10/06 06:15:22;;;;;;;1495.25;492.80;;;;;;;11.11;81.15;95491.63;4949394;28;20058;-76
2021/10/06 06:17:47;;;;;;;59.35;35.67;;;;;;;11.26;80.86;95486.63;4949010;29;20035;-76
2021/10/06 06:20:14;;;;;;;108.20;33.33;;;;;;;11.29;80.51;95491.50;4951137;29;20499;-77
2021/10/06 06:22:39;;;;;;;62.40;23.80;;;;;;;11.24;80.42;95493.78;4949710;28;20027;-78
2021/10/06 06:25:06;;;;;;;69.45;25.05;;;;;;;11.15;81.18;95492.94;4952673;29;20055;-77
2021/10/06 06:27:32;;;;;;;40.33;27.67;;;;;;;11.19;80.62;95498.63;4952120;29;20051;-77
2021/10/06 06:29:58;;;;;;;23.95;21.35;;;;;;;11.40;80.51;95489.38;4951322;28;20028;-79
2021/10/06 06:32:23;;;;;;;30.27;21.73;;;;;;;11.31;80.69;95490.34;4951805;29;20023;-77
2021/10/06 06:34:49;;;;;;;95.03;23.70;;;;;;;11.23;81.40;95494.75;4950092;29;20473;-76
2021/10/06 06:37:14;;;;;;;148.93;28.70;;;;;;;11.09;81.68;95491.81;4953762;28;20027;-77
2021/10/06 06:39:40;;;;;;;202.60;30.92;;;;;;;11.37;81.67;95494.91;4950235;29;20035;-79
2021/10/06 06:42:05;;;;;;;799.70;57.80;;;;;;;11.15;82.04;95500.72;4951256;28;20030;-77
2021/10/06 06:44:31;;;;;;;87.20;26.10;;;;;;;11.20;82.39;95508.03;4949595;29;20027;-77
2021/10/06 06:46:56;;;;;;;203.45;28.88;;;;;;;11.16;82.14;95497.16;4951025;28;20035;-77
2021/10/06 06:49:22;;;;;;;296.98;35.08;;;;;;;11.05;82.94;95489.69;4950865;29;20030;-77
2021/10/06 06:51:47;;;;;;;588.47;48.35;;;;;;;11.13;82.36;95499.25;4951421;28;20449;-77
2021/10/06 06:54:12;;;;;;;25.13;22.48;;;;;;;11.11;82.32;95489.84;4950380;28;20421;-77
2021/10/06 06:56:41;;;;;;;26.50;23.63;;;;;;;11.30;81.61;95498.31;4949124;28;20102;-76
2021/10/06 06:59:07;;;;;;;331.65;36.08;;;;;;;11.25;82.03;95498.78;4950580;28;20035;-76
2021/10/06 07:01:33;;;;;;;287.35;34.75;;;;;;;11.30;81.78;95493.91;4931487;29;20043;-76
2021/10/06 07:03:58;;;;;;;243.52;32.85;;;;;;;11.22;82.37;95495.69;4933682;29;20961;-76
2021/10/06 07:06:25;;;;;;;813.60;60.38;;;;;;;11.13;82.17;95507.03;4948797;28;20032;-76
2021/10/06 07:08:50;;;;;;;1002.67;66.63;;;;;;;11.11;82.65;95497.63;4950052;29;20038;-76
2021/10/06 07:11:16;;;;;;;57.05;23.45;;;;;;;11.26;82.47;95499.59;4949309;28;20027;-76
2021/10/06 07:13:41;;;;;;;366.38;39.60;;;;;;;11.39;82.13;95505.13;4949347;29;20039;-76
2021/10/06 07:16:07;;;;;;;65.53;23.38;;;;;;;11.67;81.17;95503.81;4949943;28;20039;-77
2021/10/06 07:18:32;;;;;;;824.30;57.80;;;;;;;11.49;81.06;95513.56;4948560;29;20028;-77
2021/10/06 07:20:58;;;;;;;350.98;36.65;;;;;;;11.38;81.56;95512.09;4950461;28;20481;-77
2021/10/06 07:23:23;;;;;;;77.13;24.63;;;;;;;11.34;81.94;95513.38;4949792;29;20019;-77
2021/10/06 07:25:49;;;;;;;64.85;24.80;;;;;;;11.42;81.67;95515.97;4950557;29;20027;-78
2021/10/06 07:28:14;;;;;;;640.33;49.78;;;;;;;11.52;81.55;95511.44;4948840;28;20105;-76
2021/10/06 07:30:40;;;;;;;434.05;42.90;;;;;;;11.30;82.28;95504.28;4950258;29;20034;-77
2021/10/06 07:33:05;;;;;;;120.53;71.50;;;;;;;11.39;82.50;95508.53;4949135;29;20019;-76
2021/10/06 07:35:31;;;;;;;148.63;70.85;;;;;;;11.55;80.88;95505.13;4949461;29;20473;-76
2021/10/06 07:37:56;;;;;;;974.95;96.43;;;;;;;11.42;81.22;95513.41;4949931;28;20027;-77
2021/10/06 07:40:21;;;;;;;28.20;25.30;;;;;;;11.40;81.83;95517.91;4948181;29;20086;-76
2021/10/06 07:42:47;;;;;;;26.40;23.73;;;;;;;11.64;81.76;95517.13;4950018;29;20019;-76
2021/10/06 07:45:13;;;;;;;366.05;41.20;;;;;;;11.62;81.15;95519.84;4948089;28;20113;-76
2021/10/06 07:47:38;;;;;;;28.17;23.20;;;;;;;11.78;81.12;95507.91;4949790;29;20130;-76
2021/10/06 07:50:04;;;;;;;200.95;30.30;;;;;;;11.64;80.71;95519.72;4948470;29;20067;-76
2021/10/06 07:52:29;;;;;;;101.20;27.60;;;;;;;11.62;80.90;95525.03;4949807;28;20027;-77
2021/10/06 07:54:55;;;;;;;40.53;27.63;;;;;;;11.74;80.81;95525.56;4951927;28;20396;-76
2021/10/06 07:57:20;;;;;;;111.70;31.10;;;;;;;11.56;81.33;95530.06;4952484;28;20019;-76
2021/10/06 07:59:46;;;;;;;84.53;35.15;;;;;;;11.58;81.10;95533.34;4953482;28;20055;-76
2021/10/06 08:02:11;;;;;;;24.98;22.27;;;;;;;11.79;80.63;95536.25;4951319;28;20125;-76
2021/10/06 08:04:37;;;;;;;254.75;39.53;;;;;;;11.72;80.70;95524.91;4954796;28;20097;-75
2021/10/06 08:07:03;;;;;;;75.82;45.78;;;;;;;11.64;81.28;95527.50;4951646;29;20027;-76
2021/10/06 08:09:29;;;;;;;173.38;48.38;;;;;;;11.55;81.23;95529.28;4952989;29;20050;-77
2021/10/06 08:11:55;;;;;;;101.55;28.52;;;;;;;11.53;80.96;95533.00;4952174;28;20098;-77
2021/10/06 08:14:20;;;;;;;361.48;43.42;;;;;;;11.58;80.16;95530.75;4952558;29;20035;-77
2021/10/06 08:16:45;;;;;;;182.70;30.63;;;;;;;11.67;80.31;95532.34;4952832;28;20039;-77
2021/10/06 08:19:11;;;;;;;31.35;24.50;;;;;;;11.66;79.92;95541.09;4951967;29;20035;-76
2021/10/06 08:21:36;;;;;;;627.90;48.75;;;;;;;11.34;79.22;95526.34;4952959;28;20027;-76
2021/10/06 08:24:02;;;;;;;72.15;25.75;;;;;;;11.71;79.79;95544.06;4951260;29;20034;-77
2021/10/06 08:26:27;;;;;;;47.30;23.45;;;;;;;11.73;79.10;95549.06;4953110;29;20027;-78
2021/10/06 08:28:53;;;;;;;46.20;29.00;;;;;;;11.75;79.30;95542.75;4951712;28;20094;-77
2021/10/06 08:31:19;;;;;;;624.63;82.75;;;;;;;11.77;78.58;95532.22;4953063;29;20035;-77
2021/10/06 08:33:45;;;;;;;58.45;33.25;;;;;;;11.68;78.42;95541.78;4954005;29;20388;-78
2021/10/06 08:36:10;;;;;;;112.97;40.28;;;;;;;11.93;77.63;95535.63;4951933;28;20015;-78
2021/10/06 08:38:36;;;;;;;355.90;36.45;;;;;;;11.87;78.12;95545.84;4952608;29;20032;-78
2021/10/06 08:41:03;;;;;;;32.40;23.48;;;;;;;11.99;78.33;95536.72;4951260;29;20477;-78
2021/10/06 08:43:28;;;;;;;27.70;23.73;;;;;;;12.11;78.45;95543.19;4952582;29;20039;-78
2021/10/06 08:45:54;;;;;;;430.15;42.22;;;;;;;12.01;77.77;95553.75;4933738;29;20409;-79
2021/10/06 08:48:19;;;;;;;69.13;28.25;;;;;;;11.93;77.44;95560.75;4952622;29;20481;-77
2021/10/06 08:50:45;;;;;;;30.13;25.92;;;;;;;12.12;77.81;95535.25;4951279;28;20035;-80
2021/10/06 08:53:10;;;;;;;171.60;30.08;;;;;;;12.02;77.74;95554.56;4951897;28;20024;-78
2021/10/06 08:55:36;;;;;;;28.20;23.60;;;;;;;11.93;77.86;95552.97;4919043;29;20043;-79
2021/10/06 08:58:05;;;;;;;322.52;35.92;;;;;;;11.83;78.33;95552.31;4952056;28;20027;-78
2021/10/06 09:00:31;;;;;;;24.50;22.02;;;;;;;11.90;77.72;95554.09;4935048;29;20421;-78
2021/10/06 09:03:08;;;;;;;28.42;22.27;;;;;;;12.19;77.12;95555.34;4950796;29;20023;-78
2021/10/06 09:05:33;;;;;;;28.38;21.70;;;;;;;12.06;77.70;95555.88;4935247;29;20046;-78
2021/10/06 09:07:59;;;;;;;26.15;20.88;;;;;;;12.01;77.86;95558.94;4933857;29;20023;-78
2021/10/06 09:10:28;;;;;;;268.40;32.80;;;;;;;12.07;78.17;95550.50;4951814;28;20031;-77
2021/10/06 09:13:01;;;;;;;30.25;21.85;;;;;;;12.01;78.32;95558.94;4951780;29;20058;-79
2021/10/06 09:15:28;;;;;;;24.02;21.02;;;;;;;12.13;78.18;95549.88;4950806;28;20035;-77
2021/10/06 09:17:54;;;;;;;710.55;53.75;;;;;;;12.25;77.54;95541.72;4952063;29;20035;-79
2021/10/06 09:20:20;;;;;;;158.35;27.88;;;;;;;11.95;78.34;95553.59;4933133;29;20414;-77
2021/10/06 09:22:59;;;;;;;24.73;21.67;;;;;;;12.12;78.32;95553.44;4951942;29;20122;-78
2021/10/06 09:25:27;;;;;;;253.60;32.13;;;;;;;12.02;78.64;95547.59;4950806;29;20086;-76
2021/10/06 09:27:52;;;;;;;163.98;26.70;;;;;;;12.14;78.23;95542.88;4951296;28;20034;-78
2021/10/06 09:30:18;;;;;;;23.42;21.00;;;;;;;11.97;79.11;95543.88;4951789;29;20403;-81
2021/10/06 09:32:44;;;;;;;119.55;26.30;;;;;;;12.02;79.11;95557.16;4951050;29;20027;-77
2021/10/06 09:35:18;;;;;;;25.25;22.27;;;;;;;12.26;78.55;95545.94;4951906;28;20023;-78
2021/10/06 09:37:50;;;;;;;25.95;23.25;;;;;;;11.94;79.26;95549.41;4950027;28;20059;-77
2021/10/06 09:40:17;;;;;;;109.30;25.20;;;;;;;12.03;78.74;95551.81;4951352;29;20031;-78
2021/10/06 09:42:47;;;;;;;442.90;44.03;;;;;;;11.80;79.30;95552.66;4950872;29;20023;-77
2021/10/06 09:45:32;;;;;;;;;;;;;;;11.87;79.22;95554.44;4951353;28;20058;-78
2021/10/06 09:48:17;;;;;;;67.70;26.90;;;;;;;11.67;80.02;95553.09;4952283;29;19981;-78
2021/10/06 09:50:47;;;;;;;456.40;45.60;;;;;;;11.73;79.99;95546.47;4949603;28;20039;-77
2021/10/06 09:53:19;;;;;;;29.63;26.23;;;;;;;11.88;79.78;95561.22;4935577;29;20691;-78
2021/10/06 09:55:47;;;;;;;28.48;25.42;;;;;;;11.86;79.54;95558.00;4950093;28;20118;-77
2021/10/06 09:58:13;;;;;;;55.53;27.33;;;;;;;11.80;79.82;95560.44;4933890;28;20142;-78
2021/10/06 10:00:40;;;;;;;28.35;24.80;;;;;;;11.83;79.77;95560.91;4933356;29;20110;-78
2021/10/06 10:03:06;;;;;;;27.23;24.42;;;;;;;12.02;78.91;95559.75;4949855;29;20031;-78
2021/10/06 10:05:33;;;;;;;29.20;25.42;;;;;;;12.00;78.97;95562.53;4950745;28;20540;-79
2021/10/06 10:07:59;;;;;;;39.38;24.83;;;;;;;11.79;79.56;95549.25;4932588;29;20035;-77
2021/10/06 10:10:24;;;;;;;131.45;29.00;;;;;;;11.80;79.57;95545.69;4933495;28;20549;-75
2021/10/06 10:12:50;;;;;;;648.63;59.80;;;;;;;12.00;78.78;95543.56;4949822;29;20453;-76
2021/10/06 10:15:19;;;;;;;498.08;45.78;;;;;;;11.95;78.85;95544.03;4933508;29;20027;-78
2021/10/06 10:17:45;;;;;;;77.30;23.60;;;;;;;12.26;78.23;95538.16;4949683;28;20034;-77
2021/10/06 10:20:15;;;;;;;257.20;35.60;;;;;;;12.03;78.28;95530.25;4949399;28;20027;-77
2021/10/06 10:22:42;;;;;;;396.30;40.28;;;;;;;12.21;77.63;95520.44;4933938;29;20024;-77
2021/10/06 10:25:20;;;;;;;302.70;38.58;;;;;;;12.14;77.89;95522.91;4916247;29;20039;-77
2021/10/06 10:28:17;;;;;;;639.15;56.85;;;;;;;12.15;77.71;95516.75;4933336;29;20027;-77
2021/10/06 10:30:55;;;;;;;1567.55;107.47;;;;;;;12.03;78.24;95518.06;4924390;29;20186;-77
2021/10/06 10:33:40;;;;;;;30.73;24.48;;;;;;;11.87;78.07;95502.53;4949333;29;20126;-77
2021/10/06 10:36:34;;;;;;;230.75;32.83;;;;;;;12.05;78.29;95510.09;4950358;28;20035;-78
2021/10/06 10:39:04;;;;;;;114.72;26.98;;;;;;;12.07;78.32;95506.38;4948836;29;20035;-76
2021/10/06 10:41:48;;;;;;;59.70;23.60;;;;;;;12.24;77.88;95508.91;4949960;29;20035;-77
2021/10/06 10:44:22;;;;;;;25.00;22.35;;;;;;;12.27;78.14;95503.38;4933408;28;20035;-78
2021/10/06 10:47:01;;;;;;;26.02;21.92;;;;;;;12.43;77.56;95503.34;4932888;29;20057;-78
2021/10/06 10:49:33;;;;;;;168.10;27.88;;;;;;;12.18;77.96;95497.41;4949769;29;20034;-74
2021/10/06 10:51:59;;;;;;;1999.90;202.85;;;;;;;12.14;77.47;95490.94;4917149;29;20047;-77
2021/10/06 10:54:28;;;;;;;61.83;21.75;;;;;;;12.30;77.30;95497.84;4949561;28;20035;-77
2021/10/06 10:56:53;;;;;;;263.70;30.23;;;;;;;12.48;76.51;95493.25;4949925;28;20039;-77
2021/10/06 10:59:22;;;;;;;211.32;32.50;;;;;;;12.23;77.55;95486.53;4948485;28;20095;-78
2021/10/06 11:01:48;;;;;;;23.23;20.63;;;;;;;12.56;75.95;95495.81;4932969;29;20076;-77
2021/10/06 11:04:17;;;;;;;53.83;21.52;;;;;;;12.33;75.25;95476.78;4949287;28;20472;-77
2021/10/06 11:06:45;;;;;;;98.00;23.73;;;;;;;12.37;75.49;95488.41;4950112;29;20477;-77
2021/10/06 11:09:46;;;;;;;599.42;52.10;;;;;;;12.37;75.55;95478.03;4949168;29;20023;-78
2021/10/06 11:12:12;;;;;;;162.70;27.17;;;;;;;12.50;74.81;95475.72;4908526;29;20043;-78
2021/10/06 11:14:44;;;;;;;1875.88;108.78;;;;;;;12.43;74.55;95477.34;4949810;28;20027;-77
2021/10/06 11:17:28;;;;;;;21.35;18.98;;;;;;;12.52;74.71;95484.16;4931734;29;20516;-77
2021/10/06 11:19:54;;;;;;;71.15;21.45;;;;;;;12.67;74.52;95490.25;4932900;29;20111;-77
2021/10/06 11:22:23;;;;;;;91.47;18.88;;;;;;;12.75;73.68;95482.41;4916375;29;20046;-77
2021/10/06 11:24:52;;;;;;;144.80;22.17;;;;;;;12.96;72.94;95474.81;4949171;29;20063;-76
2021/10/06 11:27:18;;;;;;;189.07;23.77;;;;;;;12.78;73.66;95471.66;4950048;28;20051;-76
2021/10/06 11:29:44;;;;;;;27.17;17.23;;;;;;;12.89;71.75;95445.28;4933699;29;20321;-77
2021/10/06 11:32:09;;;;;;;486.00;37.08;;;;;;;12.81;72.34;95460.13;4936690;29;20031;-78
2021/10/06 11:34:45;;;;;;;499.75;33.25;;;;;;;12.72;72.40;95461.94;4952710;29;20824;-76
2021/10/06 11:37:18;;;;;;;393.45;32.28;;;;;;;12.74;72.85;95460.00;4936819;29;20019;-77
2021/10/06 11:39:44;;;;;;;896.63;55.05;;;;;;;12.70;72.40;95450.94;4953608;29;20027;-79
2021/10/06 11:42:09;;;;;;;284.73;26.35;;;;;;;13.10;71.62;95416.88;4953733;29;20032;-78
2021/10/06 11:44:35;;;;;;;178.73;20.55;;;;;;;13.14;70.56;95431.16;4936852;29;20031;-80
2021/10/06 11:47:05;;;;;;;1999.90;164.45;;;;;;;13.09;69.88;95438.69;4920506;29;20037;-80
2021/10/06 11:49:35;;;;;;;1999.90;161.38;;;;;;;12.98;70.65;95436.44;4942781;29;20031;-75
2021/10/06 11:52:01;;;;;;;513.00;35.67;;;;;;;13.77;67.99;95416.13;4935471;28;20059;-78
2021/10/06 11:54:27;;;;;;;529.20;37.08;;;;;;;13.36;69.64;95433.91;4923061;28;20394;-80
2021/10/06 11:56:57;;;;;;;1237.88;86.25;;;;;;;13.92;66.61;95409.94;4934591;28;20080;-81
2021/10/06 11:59:25;;;;;;;1280.40;74.50;;;;;;;13.82;67.16;95435.44;4935686;29;20094;-78
2021/10/06 12:01:53;;;;;;;413.95;31.45;;;;;;;13.92;67.90;95419.53;4954779;29;20043;-78
2021/10/06 12:04:20;;;;;;;1338.78;81.43;;;;;;;13.69;67.17;95420.44;4952473;28;20501;-77
2021/10/06 12:06:46;;;;;;;1019.58;62.08;;;;;;;14.23;65.86;95412.34;4936070;29;20038;-82
2021/10/06 12:09:13;;;;;;;15.10;13.32;;;;;;;14.25;66.44;95424.19;4918432;29;20032;-78
2021/10/06 12:11:40;;;;;;;1774.28;114.65;;;;;;;14.04;65.38;95400.69;4920196;29;20035;-87
2021/10/06 12:14:21;;;;;;;712.75;44.85;;;;;;;14.08;66.59;95403.72;4918430;29;20039;-77
2021/10/06 12:16:56;;;;;;;662.47;41.33;;;;;;;14.31;64.84;95385.38;4952687;29;20042;-88
2021/10/06 12:19:23;;;;;;;272.17;25.42;;;;;;;14.65;65.13;95409.03;4952215;28;20042;-78
2021/10/06 12:21:48;;;;;;;456.27;31.75;;;;;;;14.60;64.77;95390.56;4951789;29;20422;-81
2021/10/06 12:24:15;;;;;;;691.65;43.28;;;;;;;14.27;65.67;95401.38;4936063;29;20031;-76
2021/10/06 12:26:41;;;;;;;713.65;43.05;;;;;;;14.31;65.26;95369.75;4934256;29;20104;-78
2021/10/06 12:29:06;;;;;;;1999.90;242.90;;;;;;;14.06;65.24;95385.66;4952595;29;20023;-77
2021/10/06 12:31:32;;;;;;;1255.88;69.35;;;;;;;14.48;64.27;95382.38;4952192;29;20116;-77
2021/10/06 12:34:11;;;;;;;477.10;29.60;;;;;;;14.88;63.67;95374.97;4952320;29;20035;-77
2021/10/06 12:36:44;;;;;;;1689.15;87.07;;;;;;;14.97;63.46;95374.66;4952075;28;20027;-77
2021/10/06 12:39:11;;;;;;;1980.30;110.85;;;;;;;14.43;63.53;95378.72;4933874;28;20094;-77
2021/10/06 12:41:45;;;;;;;1101.47;64.75;;;;;;;14.87;63.46;95368.94;4952660;29;20063;-77
2021/10/06 12:44:15;;;;;;;15.98;10.98;;;;;;;15.16;61.65;95357.56;4934035;29;20031;-78
2021/10/06 12:46:41;;;;;;;1886.72;102.30;;;;;;;14.65;62.68;95362.13;4935255;29;20031;-78
2021/10/06 12:49:12;;;;;;;662.78;38.05;;;;;;;14.61;63.04;95366.88;4933651;29;20067;-76
2021/10/06 12:51:37;;;;;;;1999.90;116.68;;;;;;;14.32;63.28;95342.72;4952235;28;20259;-88
2021/10/06 12:54:04;;;;;;;611.70;39.42;;;;;;;14.91;62.58;95364.97;4934525;28;20046;-79
2021/10/06 12:56:43;;;;;;;1463.18;81.68;;;;;;;14.57;62.97;95357.84;4951394;29;20031;-75
2021/10/06 12:59:12;;;;;;;1247.85;75.55;;;;;;;14.79;62.63;95353.44;4951878;28;20053;-76
2021/10/06 13:01:41;;;;;;;906.83;53.15;;;;;;;14.78;62.63;95347.41;4951446;29;20047;-76
2021/10/06 13:04:09;;;;;;;708.78;41.47;;;;;;;14.85;61.85;95341.44;4951716;28;20031;-76
2021/10/06 13:06:35;;;;;;;953.90;54.92;;;;;;;14.85;62.22;95339.66;4951445;29;20027;-76
2021/10/06 13:09:03;;;;;;;1255.15;65.15;;;;;;;14.82;61.73;95347.84;4951210;29;20413;-76
2021/10/06 13:11:28;;;;;;;1547.15;84.25;;;;;;;14.84;62.25;95338.03;4951994;28;20067;-76
2021/10/06 13:13:54;;;;;;;837.50;47.80;;;;;;;14.71;62.00;95343.13;4950643;28;20461;-77
2021/10/06 13:16:20;;;;;;;1138.13;65.15;;;;;;;14.77;62.71;95347.59;4951808;29;20394;-77
2021/10/06 13:18:45;;;;;;;1663.38;83.75;;;;;;;14.73;61.69;95336.75;4933104;28;20035;-76
2021/10/06 13:21:11;;;;;;;1999.90;138.40;;;;;;;14.47;62.52;95339.09;4951943;29;20031;-78
2021/10/06 13:23:36;;;;;;;1704.85;84.57;;;;;;;14.65;62.25;95351.69;4950606;29;20133;-78
2021/10/06 13:26:02;;;;;;;243.02;19.35;;;;;;;14.88;62.65;95343.69;4951749;28;20038;-76
2021/10/06 13:28:28;;;;;;;719.42;41.70;;;;;;;14.82;62.83;95337.41;4950595;29;20035;-75
2021/10/06 13:30:53;;;;;;;1933.57;99.85;;;;;;;14.42;62.93;95327.59;4951428;29;20027;-83
2021/10/06 13:33:19;;;;;;;733.78;45.15;;;;;;;14.93;62.12;95331.69;4951822;29;20102;-79
2021/10/06 13:35:44;;;;;;;404.10;25.23;;;;;;;15.02;61.98;95327.16;4950029;28;20094;-76
2021/10/06 13:38:10;;;;;;;924.05;50.17;;;;;;;15.01;61.95;95318.53;4951492;29;20027;-76
2021/10/06 13:40:35;;;;;;;720.63;39.72;;;;;;;14.90;61.88;95313.81;4949993;29;20579;-82
2021/10/06 13:43:01;;;;;;;1311.25;76.18;;;;;;;14.76;62.69;95306.88;4951534;28;20038;-78
2021/10/06 13:45:27;;;;;;;1984.32;107.63;;;;;;;14.61;62.54;95308.72;4949712;29;20038;-79
2021/10/06 13:47:52;;;;;;;1787.50;97.10;;;;;;;14.48;63.43;95319.06;4934013;29;20695;-84
2021/10/06 13:50:19;;;;;;;770.13;46.42;;;;;;;14.85;62.97;95313.56;4950790;28;20034;-81
2021/10/06 13:52:44;;;;;;;1238.85;66.60;;;;;;;14.80;62.54;95294.28;4932578;29;20399;-78
2021/10/06 13:55:09;;;;;;;1331.97;75.78;;;;;;;14.77;62.18;95290.22;4950566;28;20027;-77
2021/10/06 13:57:35;;;;;;;391.05;28.45;;;;;;;15.00;62.04;95297.84;4949403;28;20023;-77
2021/10/06 14:00:00;;;;;;;1604.60;82.75;;;;;;;14.70;62.41;95290.16;4951045;28;20090;-87
2021/10/06 14:02:26;;;;;;;179.82;17.27;;;;;;;15.02;61.65;95275.00;4948984;29;20130;-77
2021/10/06 14:04:51;;;;;;;606.60;36.03;;;;;;;15.07;61.84;95273.41;4950696;28;20502;-77
2021/10/06 14:07:17;;;;;;;1749.43;93.28;;;;;;;14.69;62.75;95293.78;4932771;29;20027;-76
2021/10/06 14:09:42;;;;;;;166.95;17.42;;;;;;;14.66;63.49;95298.56;4949999;28;20027;-78
2021/10/06 14:12:08;;;;;;;71.25;12.63;;;;;;;14.91;63.14;95299.78;4950821;29;20046;-78
2021/10/06 14:14:34;;;;;;;1999.90;129.48;;;;;;;14.51;63.34;95298.59;4916337;29;20572;-77
2021/10/06 14:16:59;;;;;;;1518.22;80.57;;;;;;;14.42;63.77;95296.31;4950811;29;20023;-82
2021/10/06 14:19:25;;;;;;;484.10;35.08;;;;;;;14.76;63.74;95288.63;4948702;28;20030;-83
2021/10/06 14:21:50;;;;;;;1103.68;63.38;;;;;;;14.63;63.66;95291.13;4951066;29;20023;-77
2021/10/06 14:24:15;;;;;;;1972.78;101.22;;;;;;;14.38;63.90;95293.28;4949019;29;20504;-77
2021/10/06 14:26:41;;;;;;;487.52;34.53;;;;;;;14.49;63.98;95276.34;4950392;28;20389;-78
2021/10/06 14:29:06;;;;;;;1527.45;78.05;;;;;;;14.46;64.22;95276.72;4933018;29;20030;-87
2021/10/06 14:31:32;;;;;;;1760.65;84.80;;;;;;;14.45;64.53;95298.56;4932563;29;20023;-79
2021/10/06 14:33:58;;;;;;;525.92;35.67;;;;;;;14.55;64.75;95291.22;4950457;28;20098;-77
2021/10/06 14:36:24;;;;;;;1471.97;76.65;;;;;;;14.44;64.35;95304.78;4948987;29;20106;-79
2021/10/06 14:38:50;;;;;;;452.05;30.15;;;;;;;14.37;64.85;95302.09;4950250;29;20054;-76
2021/10/06 14:41:15;;;;;;;16.50;11.00;;;;;;;14.74;64.43;95304.44;4948849;29;20031;-77
2021/10/06 14:43:41;;;;;;;294.38;25.33;;;;;;;14.66;64.30;95303.78;4949840;28;20023;-78
2021/10/06 14:46:06;;;;;;;1999.90;117.05;;;;;;;14.34;65.17;95301.66;4949298;29;20034;-77
2021/10/06 14:48:32;;;;;;;735.90;43.40;;;;;;;14.36;64.95;95291.84;4932246;29;20039;-77
2021/10/06 14:50:59;;;;;;;44.65;14.05;;;;;;;14.50;65.31;95301.41;4949976;28;20114;-77
2021/10/06 14:53:25;;;;;;;722.40;43.70;;;;;;;14.28;65.74;95308.38;4931413;28;20034;-78
2021/10/06 14:55:51;;;;;;;1088.28;54.20;;;;;;;14.13;65.90;95287.56;4950006;28;20424;-78
2021/10/06 14:58:16;;;;;;;1895.63;110.25;;;;;;;14.12;65.59;95293.78;4931303;29;20106;-77
2021/10/06 15:00:45;;;;;;;736.95;46.00;;;;;;;14.12;65.91;95285.97;4949560;29;20398;-78
2021/10/06 15:03:15;;;;;;;1346.10;73.72;;;;;;;13.98;66.59;95280.78;4947843;28;20118;-78
2021/10/06 15:05:41;;;;;;;;;;;;;;;14.05;66.65;95289.50;4931885;29;20110;-77
2021/10/06 15:08:06;;;;;;;1460.88;82.80;;;;;;;13.94;66.53;95298.56;4948031;29;20423;-79
2021/10/06 15:10:37;;;;;;;1999.90;188.55;;;;;;;13.83;66.89;95301.66;4947665;28;20027;-78
2021/10/06 15:13:03;;;;;;;12.27;10.23;;;;;;;13.93;66.91;95306.59;4948413;28;20493;-78
2021/10/06 15:15:28;;;;;;;727.65;43.42;;;;;;;13.76;67.51;95300.78;4947360;29;20087;-77
2021/10/06 15:17:54;;;;;;;13.05;11.80;;;;;;;13.81;67.71;95302.81;4948456;28;20509;-78
2021/10/06 15:20:19;;;;;;;81.55;14.68;;;;;;;13.71;67.83;95298.69;4947572;29;20024;-78
2021/10/06 15:22:45;;;;;;;14.40;11.20;;;;;;;13.56;68.46;95299.69;4915563;29;20027;-79
2021/10/06 15:25:10;;;;;;;18.98;12.25;;;;;;;13.56;68.63;95302.31;4947624;29;20473;-78
2021/10/06 15:27:36;;;;;;;1999.90;147.25;;;;;;;13.41;69.08;95297.09;4930771;29;20031;-79
2021/10/06 15:30:02;;;;;;;12.82;11.73;;;;;;;13.29;69.92;95298.53;4948095;29;20031;-79
2021/10/06 15:32:28;;;;;;;43.17;13.05;;;;;;;13.17;70.09;95300.75;4947748;29;20035;-79
2021/10/06 15:34:53;;;;;;;79.90;16.20;;;;;;;13.08;70.50;95295.78;4947536;28;20035;-79
2021/10/06 15:37:19;;;;;;;92.25;16.27;;;;;;;13.03;70.79;95309.34;4947747;29;20386;-80
2021/10/06 15:39:45;;;;;;;13.25;11.85;;;;;;;12.87;71.24;95286.09;4930612;29;20473;-80
2021/10/06 15:42:10;;;;;;;18.73;12.23;;;;;;;12.98;71.11;95310.81;4948242;29;20030;-80
2021/10/06 15:44:36;;;;;;;14.77;11.70;;;;;;;12.83;71.82;95307.41;4947809;28;20031;-79
2021/10/06 15:47:01;;;;;;;15.30;13.80;;;;;;;12.57;72.81;95312.97;4948029;29;20031;-81
2021/10/06 15:49:27;;;;;;;17.85;14.35;;;;;;;12.51;73.36;95311.88;4947624;28;20030;-80
2021/10/06 15:51:53;;;;;;;13.43;12.18;;;;;;;12.45;73.27;95304.78;4930374;28;20042;-81
2021/10/06 15:54:18;;;;;;;15.50;13.52;;;;;;;12.40;73.54;95308.84;4947273;28;20069;-80
2021/10/06 15:56:44;;;;;;;206.18;21.83;;;;;;;12.26;73.60;95284.44;4947461;28;20027;-81
2021/10/06 15:59:09;;;;;;;15.13;12.50;;;;;;;12.30;73.92;95314.28;4947311;28;20031;-80
2021/10/06 16:01:35;;;;;;;14.55;13.13;;;;;;;12.01;75.46;95314.94;4948329;29;20047;-80
2021/10/06 16:04:01;;;;;;;75.30;16.35;;;;;;;12.03;75.14;95315.59;4947174;28;20039;-80
2021/10/06 16:06:27;;;;;;;18.85;13.27;;;;;;;11.91;75.77;95300.56;4948087;29;20614;-81
2021/10/06 16:08:52;;;;;;;15.88;14.25;;;;;;;11.77;76.23;95309.06;4930092;29;20113;-79
2021/10/06 16:11:18;;;;;;;27.52;13.43;;;;;;;11.89;75.85;95305.09;4947750;29;20110;-79
2021/10/06 16:13:43;;;;;;;255.02;25.88;;;;;;;11.68;76.47;95305.66;4947436;28;20050;-79